sensor_id;sensor_type;location;lat;lon;timestamp;temperature;humidity
31677;DHT22;18385;51.572;6.578;2023-05-07T00:00:01;19.40;62.20
31677;DHT22;18385;51.572;6.578;2023-05-07T00:02:27;19.40;62.30
31677;DHT22;18385;51.572;6.578;2023-05-07T00:04:52;19.40;62.30
31677;DHT22;18385;51.572;6.578;2023-05-07T00:07:18;19.40;62.40
31677;DHT22;18385;51.572;6.578;2023-05-07T00:09:44;19.30;62.30
31677;DHT22;18385;51.572;6.578;2023-05-07T00:12:09;19.30;62.50
31677;DHT22;18385;51.572;6.578;2023-05-07T00:14:35;19.40;62.70
31677;DHT22;18385;51.572;6.578;2023-05-07T00:17:01;19.30;62.50
31677;DHT22;18385;51.572;6.578;2023-05-07T00:19:27;19.30;62.50
31677;DHT22;18385;51.572;6.578;2023-05-07T00:21:52;19.30;62.70
31677;DHT22;18385;51.572;6.578;2023-05-07T00:24:22;19.30;62.70
31677;DHT22;18385;51.572;6.578;2023-05-07T00:26:47;19.20;62.70
31677;DHT22;18385;51.572;6.578;2023-05-07T00:29:13;19.20;62.80
31677;DHT22;18385;51.572;6.578;2023-05-07T00:31:38;19.20;62.90
31677;DHT22;18385;51.572;6.578;2023-05-07T00:34:04;19.20;63.00
31677;DHT22;18385;51.572;6.578;2023-05-07T00:36:30;19.10;63.00
31677;DHT22;18385;51.572;6.578;2023-05-07T00:38:57;19.10;63.10
31677;DHT22;18385;51.572;6.578;2023-05-07T00:41:24;19.10;63.20
31677;DHT22;18385;51.572;6.578;2023-05-07T00:43:50;19.10;63.20
31677;DHT22;18385;51.572;6.578;2023-05-07T00:46:17;19.10;63.30
31677;DHT22;18385;51.572;6.578;2023-05-07T00:48:43;19.00;63.30
31677;DHT22;18385;51.572;6.578;2023-05-07T00:51:10;19.00;63.40
31677;DHT22;18385;51.572;6.578;2023-05-07T00:53:37;19.00;63.50
31677;DHT22;18385;51.572;6.578;2023-05-07T00:56:03;19.00;63.50
31677;DHT22;18385;51.572;6.578;2023-05-07T00:58:29;19.00;63.50
31677;DHT22;18385;51.572;6.578;2023-05-07T01:00:55;19.00;63.60
31677;DHT22;18385;51.572;6.578;2023-05-07T01:03:21;19.00;63.60
31677;DHT22;18385;51.572;6.578;2023-05-07T01:05:47;19.00;63.60
31677;DHT22;18385;51.572;6.578;2023-05-07T01:08:14;19.00;63.70
31677;DHT22;18385;51.572;6.578;2023-05-07T01:10:40;19.00;63.70
31677;DHT22;18385;51.572;6.578;2023-05-07T01:13:09;19.00;63.80
31677;DHT22;18385;51.572;6.578;2023-05-07T01:15:36;19.00;63.80
31677;DHT22;18385;51.572;6.578;2023-05-07T01:18:02;18.90;63.80
31677;DHT22;18385;51.572;6.578;2023-05-07T01:20:33;18.90;63.90
31677;DHT22;18385;51.572;6.578;2023-05-07T01:23:00;18.90;64.00
31677;DHT22;18385;51.572;6.578;2023-05-07T01:25:26;18.90;64.00
31677;DHT22;18385;51.572;6.578;2023-05-07T01:27:56;18.90;64.00
31677;DHT22;18385;51.572;6.578;2023-05-07T01:30:27;18.90;64.00
31677;DHT22;18385;51.572;6.578;2023-05-07T01:33:01;18.90;64.10
31677;DHT22;18385;51.572;6.578;2023-05-07T01:35:34;18.90;64.20
31677;DHT22;18385;51.572;6.578;2023-05-07T01:38:02;18.80;64.20
31677;DHT22;18385;51.572;6.578;2023-05-07T01:40:30;18.80;64.30
31677;DHT22;18385;51.572;6.578;2023-05-07T01:42:55;18.80;64.40
31677;DHT22;18385;51.572;6.578;2023-05-07T01:45:22;18.80;64.40
31677;DHT22;18385;51.572;6.578;2023-05-07T01:47:49;18.80;64.50
31677;DHT22;18385;51.572;6.578;2023-05-07T01:50:16;18.80;64.60
31677;DHT22;18385;51.572;6.578;2023-05-07T01:52:43;18.70;64.50
31677;DHT22;18385;51.572;6.578;2023-05-07T01:55:09;18.70;64.60
31677;DHT22;18385;51.572;6.578;2023-05-07T01:57:35;18.70;64.70
31677;DHT22;18385;51.572;6.578;2023-05-07T02:00:01;18.70;64.70
31677;DHT22;18385;51.572;6.578;2023-05-07T02:02:28;18.70;64.70
31677;DHT22;18385;51.572;6.578;2023-05-07T02:04:57;18.80;64.70
31677;DHT22;18385;51.572;6.578;2023-05-07T02:07:22;18.80;64.70
31677;DHT22;18385;51.572;6.578;2023-05-07T02:09:48;18.80;64.70
31677;DHT22;18385;51.572;6.578;2023-05-07T02:12:14;18.80;64.80
31677;DHT22;18385;51.572;6.578;2023-05-07T02:14:40;18.80;64.80
31677;DHT22;18385;51.572;6.578;2023-05-07T02:17:06;18.80;64.80
31677;DHT22;18385;51.572;6.578;2023-05-07T02:19:32;18.80;64.80
31677;DHT22;18385;51.572;6.578;2023-05-07T02:21:58;18.70;64.80
31677;DHT22;18385;51.572;6.578;2023-05-07T02:24:29;18.70;64.80
31677;DHT22;18385;51.572;6.578;2023-05-07T02:26:55;18.70;64.90
31677;DHT22;18385;51.572;6.578;2023-05-07T02:29:21;18.70;64.90
31677;DHT22;18385;51.572;6.578;2023-05-07T02:31:47;18.60;64.90
31677;DHT22;18385;51.572;6.578;2023-05-07T02:34:16;18.60;65.00
31677;DHT22;18385;51.572;6.578;2023-05-07T02:36:42;18.60;65.10
31677;DHT22;18385;51.572;6.578;2023-05-07T02:39:12;18.60;66.00
31677;DHT22;18385;51.572;6.578;2023-05-07T02:41:38;18.50;65.20
31677;DHT22;18385;51.572;6.578;2023-05-07T02:44:04;18.50;65.30
31677;DHT22;18385;51.572;6.578;2023-05-07T02:46:31;18.50;65.30
31677;DHT22;18385;51.572;6.578;2023-05-07T02:49:01;18.50;65.40
31677;DHT22;18385;51.572;6.578;2023-05-07T02:51:27;18.40;65.50
31677;DHT22;18385;51.572;6.578;2023-05-07T02:53:55;18.40;65.60
31677;DHT22;18385;51.572;6.578;2023-05-07T02:56:21;18.40;65.70
31677;DHT22;18385;51.572;6.578;2023-05-07T02:58:47;18.40;65.70
31677;DHT22;18385;51.572;6.578;2023-05-07T03:01:13;18.40;65.70
31677;DHT22;18385;51.572;6.578;2023-05-07T03:03:52;18.40;65.80
31677;DHT22;18385;51.572;6.578;2023-05-07T03:06:18;18.30;65.80
31677;DHT22;18385;51.572;6.578;2023-05-07T03:08:43;18.40;65.90
31677;DHT22;18385;51.572;6.578;2023-05-07T03:11:09;18.30;65.90
31677;DHT22;18385;51.572;6.578;2023-05-07T03:13:35;18.30;66.00
31677;DHT22;18385;51.572;6.578;2023-05-07T03:16:01;18.30;66.00
31677;DHT22;18385;51.572;6.578;2023-05-07T03:18:26;18.30;66.00
31677;DHT22;18385;51.572;6.578;2023-05-07T03:20:53;18.30;66.00
31677;DHT22;18385;51.572;6.578;2023-05-07T03:23:18;18.30;66.10
31677;DHT22;18385;51.572;6.578;2023-05-07T03:25:44;18.30;66.10
31677;DHT22;18385;51.572;6.578;2023-05-07T03:28:10;18.30;66.20
31677;DHT22;18385;51.572;6.578;2023-05-07T03:30:41;18.30;66.20
31677;DHT22;18385;51.572;6.578;2023-05-07T03:33:07;18.30;66.30
31677;DHT22;18385;51.572;6.578;2023-05-07T03:35:32;18.30;66.20
31677;DHT22;18385;51.572;6.578;2023-05-07T03:37:58;18.30;66.30
31677;DHT22;18385;51.572;6.578;2023-05-07T03:40:26;18.30;66.30
31677;DHT22;18385;51.572;6.578;2023-05-07T03:42:53;18.20;66.40
31677;DHT22;18385;51.572;6.578;2023-05-07T03:45:22;18.30;66.40
31677;DHT22;18385;51.572;6.578;2023-05-07T03:47:57;18.20;66.40
31677;DHT22;18385;51.572;6.578;2023-05-07T03:50:23;18.20;66.40
31677;DHT22;18385;51.572;6.578;2023-05-07T03:52:48;18.20;66.50
31677;DHT22;18385;51.572;6.578;2023-05-07T03:55:17;18.20;66.60
31677;DHT22;18385;51.572;6.578;2023-05-07T03:57:48;18.10;66.60
31677;DHT22;18385;51.572;6.578;2023-05-07T04:00:14;18.10;66.60
31677;DHT22;18385;51.572;6.578;2023-05-07T04:02:48;18.20;66.80
31677;DHT22;18385;51.572;6.578;2023-05-07T04:05:19;18.20;66.80
31677;DHT22;18385;51.572;6.578;2023-05-07T04:07:49;18.10;66.80
31677;DHT22;18385;51.572;6.578;2023-05-07T04:10:19;18.20;66.80
31677;DHT22;18385;51.572;6.578;2023-05-07T04:12:47;18.20;66.90
31677;DHT22;18385;51.572;6.578;2023-05-07T04:15:17;18.10;66.90
31677;DHT22;18385;51.572;6.578;2023-05-07T04:17:43;18.20;67.00
31677;DHT22;18385;51.572;6.578;2023-05-07T04:20:14;18.20;67.00
31677;DHT22;18385;51.572;6.578;2023-05-07T04:22:40;18.20;67.10
31677;DHT22;18385;51.572;6.578;2023-05-07T04:25:06;18.20;67.10
31677;DHT22;18385;51.572;6.578;2023-05-07T04:27:35;18.20;67.10
31677;DHT22;18385;51.572;6.578;2023-05-07T04:30:02;18.20;67.00
31677;DHT22;18385;51.572;6.578;2023-05-07T04:32:31;18.30;67.10
31677;DHT22;18385;51.572;6.578;2023-05-07T04:34:57;18.30;67.10
31677;DHT22;18385;51.572;6.578;2023-05-07T04:37:22;18.30;67.10
31677;DHT22;18385;51.572;6.578;2023-05-07T04:39:48;18.30;67.10
31677;DHT22;18385;51.572;6.578;2023-05-07T04:42:15;18.30;67.10
31677;DHT22;18385;51.572;6.578;2023-05-07T04:44:41;18.40;67.20
31677;DHT22;18385;51.572;6.578;2023-05-07T04:47:06;18.40;67.10
31677;DHT22;18385;51.572;6.578;2023-05-07T04:49:32;18.40;67.10
31677;DHT22;18385;51.572;6.578;2023-05-07T04:51:58;18.50;67.10
31677;DHT22;18385;51.572;6.578;2023-05-07T04:54:24;18.50;67.10
31677;DHT22;18385;51.572;6.578;2023-05-07T04:56:50;18.40;67.10
31677;DHT22;18385;51.572;6.578;2023-05-07T04:59:16;18.50;67.20
31677;DHT22;18385;51.572;6.578;2023-05-07T05:01:42;18.50;67.20
31677;DHT22;18385;51.572;6.578;2023-05-07T05:04:07;18.50;67.20
31677;DHT22;18385;51.572;6.578;2023-05-07T05:06:33;18.60;67.30
31677;DHT22;18385;51.572;6.578;2023-05-07T05:09:02;18.60;67.30
31677;DHT22;18385;51.572;6.578;2023-05-07T05:11:29;18.60;67.10
31677;DHT22;18385;51.572;6.578;2023-05-07T05:13:55;18.70;67.20
31677;DHT22;18385;51.572;6.578;2023-05-07T05:16:20;18.80;67.20
31677;DHT22;18385;51.572;6.578;2023-05-07T05:18:47;18.90;67.00
31677;DHT22;18385;51.572;6.578;2023-05-07T05:21:15;18.90;67.00
31677;DHT22;18385;51.572;6.578;2023-05-07T05:23:44;19.00;66.90
31677;DHT22;18385;51.572;6.578;2023-05-07T05:26:11;19.00;66.80
31677;DHT22;18385;51.572;6.578;2023-05-07T05:28:37;19.10;66.80
31677;DHT22;18385;51.572;6.578;2023-05-07T05:31:04;19.10;66.70
31677;DHT22;18385;51.572;6.578;2023-05-07T05:33:33;19.20;66.60
31677;DHT22;18385;51.572;6.578;2023-05-07T05:36:03;19.20;66.60
31677;DHT22;18385;51.572;6.578;2023-05-07T05:38:29;19.20;66.60
31677;DHT22;18385;51.572;6.578;2023-05-07T05:40:55;19.20;66.60
31677;DHT22;18385;51.572;6.578;2023-05-07T05:43:20;19.30;66.70
31677;DHT22;18385;51.572;6.578;2023-05-07T05:45:47;19.40;66.70
31677;DHT22;18385;51.572;6.578;2023-05-07T05:48:12;19.50;66.60
31677;DHT22;18385;51.572;6.578;2023-05-07T05:50:38;19.70;66.50
31677;DHT22;18385;51.572;6.578;2023-05-07T05:53:05;19.80;66.30
31677;DHT22;18385;51.572;6.578;2023-05-07T05:55:32;19.90;66.10
31677;DHT22;18385;51.572;6.578;2023-05-07T05:57:59;20.10;65.90
31677;DHT22;18385;51.572;6.578;2023-05-07T06:00:26;20.10;65.70
31677;DHT22;18385;51.572;6.578;2023-05-07T06:03:00;20.20;65.60
31677;DHT22;18385;51.572;6.578;2023-05-07T06:05:26;20.20;65.40
31677;DHT22;18385;51.572;6.578;2023-05-07T06:07:54;20.20;65.40
31677;DHT22;18385;51.572;6.578;2023-05-07T06:10:21;20.20;65.20
31677;DHT22;18385;51.572;6.578;2023-05-07T06:12:47;20.30;65.30
31677;DHT22;18385;51.572;6.578;2023-05-07T06:15:13;20.30;65.30
31677;DHT22;18385;51.572;6.578;2023-05-07T06:17:40;20.30;65.10
31677;DHT22;18385;51.572;6.578;2023-05-07T06:20:07;20.40;65.10
31677;DHT22;18385;51.572;6.578;2023-05-07T06:22:32;20.40;65.00
31677;DHT22;18385;51.572;6.578;2023-05-07T06:24:59;20.40;65.00
31677;DHT22;18385;51.572;6.578;2023-05-07T06:27:25;20.50;65.00
31677;DHT22;18385;51.572;6.578;2023-05-07T06:29:51;20.50;64.80
31677;DHT22;18385;51.572;6.578;2023-05-07T06:32:18;20.50;65.40
31677;DHT22;18385;51.572;6.578;2023-05-07T06:34:45;20.50;64.60
31677;DHT22;18385;51.572;6.578;2023-05-07T06:37:12;20.60;64.50
31677;DHT22;18385;51.572;6.578;2023-05-07T06:40:07;20.70;64.40
31677;DHT22;18385;51.572;6.578;2023-05-07T06:42:36;20.70;64.40
31677;DHT22;18385;51.572;6.578;2023-05-07T06:45:20;20.80;64.30
31677;DHT22;18385;51.572;6.578;2023-05-07T06:47:46;20.90;64.10
31677;DHT22;18385;51.572;6.578;2023-05-07T06:50:12;21.00;63.80
31677;DHT22;18385;51.572;6.578;2023-05-07T06:52:38;21.10;63.80
31677;DHT22;18385;51.572;6.578;2023-05-07T06:55:06;21.20;63.70
31677;DHT22;18385;51.572;6.578;2023-05-07T06:57:32;21.20;63.40
31677;DHT22;18385;51.572;6.578;2023-05-07T06:59:57;21.30;63.30
31677;DHT22;18385;51.572;6.578;2023-05-07T07:02:23;21.40;63.10
31677;DHT22;18385;51.572;6.578;2023-05-07T07:04:49;21.40;62.90
31677;DHT22;18385;51.572;6.578;2023-05-07T07:07:15;21.30;62.80
31677;DHT22;18385;51.572;6.578;2023-05-07T07:09:43;21.30;62.80
31677;DHT22;18385;51.572;6.578;2023-05-07T07:12:10;21.40;62.90
31677;DHT22;18385;51.572;6.578;2023-05-07T07:14:38;21.50;62.60
31677;DHT22;18385;51.572;6.578;2023-05-07T07:17:03;21.50;62.60
31677;DHT22;18385;51.572;6.578;2023-05-07T07:19:30;21.60;62.50
31677;DHT22;18385;51.572;6.578;2023-05-07T07:21:57;21.80;62.50
31677;DHT22;18385;51.572;6.578;2023-05-07T07:24:23;21.90;62.20
31677;DHT22;18385;51.572;6.578;2023-05-07T07:26:53;22.00;61.80
31677;DHT22;18385;51.572;6.578;2023-05-07T07:29:21;22.20;61.70
31677;DHT22;18385;51.572;6.578;2023-05-07T07:31:48;22.30;61.50
31677;DHT22;18385;51.572;6.578;2023-05-07T07:34:15;22.30;61.20
31677;DHT22;18385;51.572;6.578;2023-05-07T07:36:41;22.50;61.20
31677;DHT22;18385;51.572;6.578;2023-05-07T07:39:08;22.60;60.90
31677;DHT22;18385;51.572;6.578;2023-05-07T07:41:33;22.70;60.70
31677;DHT22;18385;51.572;6.578;2023-05-07T07:43:59;22.80;60.50
31677;DHT22;18385;51.572;6.578;2023-05-07T07:46:25;22.90;60.20
31677;DHT22;18385;51.572;6.578;2023-05-07T07:48:52;23.00;60.10
31677;DHT22;18385;51.572;6.578;2023-05-07T07:51:18;23.10;59.80
31677;DHT22;18385;51.572;6.578;2023-05-07T07:53:44;23.10;59.50
31677;DHT22;18385;51.572;6.578;2023-05-07T07:56:10;23.20;59.50
31677;DHT22;18385;51.572;6.578;2023-05-07T07:58:35;23.30;59.40
31677;DHT22;18385;51.572;6.578;2023-05-07T08:01:03;23.40;59.50
31677;DHT22;18385;51.572;6.578;2023-05-07T08:03:29;23.60;59.20
31677;DHT22;18385;51.572;6.578;2023-05-07T08:05:58;23.70;58.80
31677;DHT22;18385;51.572;6.578;2023-05-07T08:08:24;23.90;58.70
31677;DHT22;18385;51.572;6.578;2023-05-07T08:10:51;24.00;58.30
31677;DHT22;18385;51.572;6.578;2023-05-07T08:13:27;24.00;58.00
31677;DHT22;18385;51.572;6.578;2023-05-07T08:15:53;24.10;57.90
31677;DHT22;18385;51.572;6.578;2023-05-07T08:18:19;24.10;57.80
31677;DHT22;18385;51.572;6.578;2023-05-07T08:20:45;24.20;57.60
31677;DHT22;18385;51.572;6.578;2023-05-07T08:23:15;24.20;57.50
31677;DHT22;18385;51.572;6.578;2023-05-07T08:25:42;24.40;57.20
31677;DHT22;18385;51.572;6.578;2023-05-07T08:28:08;24.50;57.00
31677;DHT22;18385;51.572;6.578;2023-05-07T08:30:34;24.50;56.70
31677;DHT22;18385;51.572;6.578;2023-05-07T08:33:00;24.50;56.50
31677;DHT22;18385;51.572;6.578;2023-05-07T08:35:26;24.60;56.30
31677;DHT22;18385;51.572;6.578;2023-05-07T08:37:53;24.60;55.80
31677;DHT22;18385;51.572;6.578;2023-05-07T08:40:20;24.50;55.80
31677;DHT22;18385;51.572;6.578;2023-05-07T08:42:49;24.50;55.90
31677;DHT22;18385;51.572;6.578;2023-05-07T08:45:16;24.50;55.70
31677;DHT22;18385;51.572;6.578;2023-05-07T08:47:46;24.50;55.40
31677;DHT22;18385;51.572;6.578;2023-05-07T08:50:13;24.40;55.30
31677;DHT22;18385;51.572;6.578;2023-05-07T08:52:42;24.40;56.30
31677;DHT22;18385;51.572;6.578;2023-05-07T08:55:08;24.40;55.60
31677;DHT22;18385;51.572;6.578;2023-05-07T08:57:34;24.40;56.30
31677;DHT22;18385;51.572;6.578;2023-05-07T09:00:04;24.30;55.70
31677;DHT22;18385;51.572;6.578;2023-05-07T09:02:30;24.30;55.60
31677;DHT22;18385;51.572;6.578;2023-05-07T09:04:56;24.30;55.30
31677;DHT22;18385;51.572;6.578;2023-05-07T09:07:22;24.20;55.20
31677;DHT22;18385;51.572;6.578;2023-05-07T09:09:48;24.30;55.20
31677;DHT22;18385;51.572;6.578;2023-05-07T09:12:14;24.20;54.90
31677;DHT22;18385;51.572;6.578;2023-05-07T09:14:40;24.20;54.60
31677;DHT22;18385;51.572;6.578;2023-05-07T09:17:06;24.00;54.60
31677;DHT22;18385;51.572;6.578;2023-05-07T09:19:32;23.90;55.10
31677;DHT22;18385;51.572;6.578;2023-05-07T09:22:05;24.00;55.10
31677;DHT22;18385;51.572;6.578;2023-05-07T09:24:49;24.10;54.90
31677;DHT22;18385;51.572;6.578;2023-05-07T09:27:17;24.00;54.90
31677;DHT22;18385;51.572;6.578;2023-05-07T09:29:44;24.00;54.90
31677;DHT22;18385;51.572;6.578;2023-05-07T09:32:10;24.00;54.90
31677;DHT22;18385;51.572;6.578;2023-05-07T09:34:36;24.00;54.80
31677;DHT22;18385;51.572;6.578;2023-05-07T09:37:03;24.00;54.80
31677;DHT22;18385;51.572;6.578;2023-05-07T09:39:43;23.90;54.60
31677;DHT22;18385;51.572;6.578;2023-05-07T09:42:10;24.00;54.90
31677;DHT22;18385;51.572;6.578;2023-05-07T09:44:37;24.20;55.10
31677;DHT22;18385;51.572;6.578;2023-05-07T09:47:08;24.50;54.70
31677;DHT22;18385;51.572;6.578;2023-05-07T09:49:40;24.80;54.50
31677;DHT22;18385;51.572;6.578;2023-05-07T09:52:10;25.00;54.10
31677;DHT22;18385;51.572;6.578;2023-05-07T09:54:45;25.20;53.60
31677;DHT22;18385;51.572;6.578;2023-05-07T09:57:13;25.40;54.10
31677;DHT22;18385;51.572;6.578;2023-05-07T09:59:42;25.50;53.20
31677;DHT22;18385;51.572;6.578;2023-05-07T10:02:10;25.50;52.90
31677;DHT22;18385;51.572;6.578;2023-05-07T10:04:46;25.50;53.50
31677;DHT22;18385;51.572;6.578;2023-05-07T10:07:13;25.50;52.80
31677;DHT22;18385;51.572;6.578;2023-05-07T10:09:40;25.40;52.70
31677;DHT22;18385;51.572;6.578;2023-05-07T10:12:13;25.40;52.60
31677;DHT22;18385;51.572;6.578;2023-05-07T10:14:41;25.50;52.70
31677;DHT22;18385;51.572;6.578;2023-05-07T10:17:08;25.50;52.30
31677;DHT22;18385;51.572;6.578;2023-05-07T10:19:36;25.50;52.40
31677;DHT22;18385;51.572;6.578;2023-05-07T10:22:05;25.50;52.50
31677;DHT22;18385;51.572;6.578;2023-05-07T10:24:36;25.70;52.40
31677;DHT22;18385;51.572;6.578;2023-05-07T10:27:10;25.80;52.20
31677;DHT22;18385;51.572;6.578;2023-05-07T10:29:59;26.00;51.90
31677;DHT22;18385;51.572;6.578;2023-05-07T10:35:03;26.30;51.50
31677;DHT22;18385;51.572;6.578;2023-05-07T10:37:31;26.40;51.00
31677;DHT22;18385;51.572;6.578;2023-05-07T10:39:57;26.60;51.10
31677;DHT22;18385;51.572;6.578;2023-05-07T10:42:24;26.80;50.70
31677;DHT22;18385;51.572;6.578;2023-05-07T10:44:53;27.10;50.80
31677;DHT22;18385;51.572;6.578;2023-05-07T10:47:26;27.40;50.30
31677;DHT22;18385;51.572;6.578;2023-05-07T10:52:32;27.60;49.10
31677;DHT22;18385;51.572;6.578;2023-05-07T10:57:42;27.70;48.90
31677;DHT22;18385;51.572;6.578;2023-05-07T11:05:32;28.10;47.60
31677;DHT22;18385;51.572;6.578;2023-05-07T11:08:08;28.00;47.40
31677;DHT22;18385;51.572;6.578;2023-05-07T11:10:55;28.10;47.70
31677;DHT22;18385;51.572;6.578;2023-05-07T11:13:45;28.20;47.00
31677;DHT22;18385;51.572;6.578;2023-05-07T11:16:24;28.40;46.90
31677;DHT22;18385;51.572;6.578;2023-05-07T11:18:59;28.50;46.00
31677;DHT22;18385;51.572;6.578;2023-05-07T11:21:38;28.40;46.10
31677;DHT22;18385;51.572;6.578;2023-05-07T11:24:39;28.40;45.70
31677;DHT22;18385;51.572;6.578;2023-05-07T11:27:06;28.50;45.70
31677;DHT22;18385;51.572;6.578;2023-05-07T11:29:32;28.70;45.60
31677;DHT22;18385;51.572;6.578;2023-05-07T11:32:06;28.80;44.80
31677;DHT22;18385;51.572;6.578;2023-05-07T11:34:40;28.70;44.10
31677;DHT22;18385;51.572;6.578;2023-05-07T11:37:08;28.50;44.50
31677;DHT22;18385;51.572;6.578;2023-05-07T11:40:07;28.50;44.40
31677;DHT22;18385;51.572;6.578;2023-05-07T11:42:40;28.50;44.50
31677;DHT22;18385;51.572;6.578;2023-05-07T11:45:08;28.70;44.50
31677;DHT22;18385;51.572;6.578;2023-05-07T11:47:34;28.90;44.70
31677;DHT22;18385;51.572;6.578;2023-05-07T11:50:06;29.20;44.10
31677;DHT22;18385;51.572;6.578;2023-05-07T11:52:33;29.30;43.30
31677;DHT22;18385;51.572;6.578;2023-05-07T11:55:00;29.30;43.20
31677;DHT22;18385;51.572;6.578;2023-05-07T11:57:27;29.40;43.10
31677;DHT22;18385;51.572;6.578;2023-05-07T11:59:54;29.40;42.60
31677;DHT22;18385;51.572;6.578;2023-05-07T12:02:20;29.40;42.40
31677;DHT22;18385;51.572;6.578;2023-05-07T12:04:46;29.30;42.30
31677;DHT22;18385;51.572;6.578;2023-05-07T12:07:12;29.30;42.00
31677;DHT22;18385;51.572;6.578;2023-05-07T12:09:42;29.30;42.10
31677;DHT22;18385;51.572;6.578;2023-05-07T12:12:08;29.30;41.70
31677;DHT22;18385;51.572;6.578;2023-05-07T12:14:41;29.10;41.40
31677;DHT22;18385;51.572;6.578;2023-05-07T12:17:07;29.10;41.40
31677;DHT22;18385;51.572;6.578;2023-05-07T12:19:37;29.10;41.40
31677;DHT22;18385;51.572;6.578;2023-05-07T12:22:04;29.10;41.30
31677;DHT22;18385;51.572;6.578;2023-05-07T12:24:50;29.10;41.10
31677;DHT22;18385;51.572;6.578;2023-05-07T12:27:21;29.00;41.60
31677;DHT22;18385;51.572;6.578;2023-05-07T12:29:48;28.90;40.90
31677;DHT22;18385;51.572;6.578;2023-05-07T12:32:24;28.80;40.90
31677;DHT22;18385;51.572;6.578;2023-05-07T12:34:51;28.50;40.90
31677;DHT22;18385;51.572;6.578;2023-05-07T12:37:25;28.40;41.10
31677;DHT22;18385;51.572;6.578;2023-05-07T12:42:35;28.30;41.90
31677;DHT22;18385;51.572;6.578;2023-05-07T12:45:12;28.30;41.50
31677;DHT22;18385;51.572;6.578;2023-05-07T12:47:38;28.30;41.60
31677;DHT22;18385;51.572;6.578;2023-05-07T12:50:06;28.20;41.80
31677;DHT22;18385;51.572;6.578;2023-05-07T12:52:33;28.30;41.50
31677;DHT22;18385;51.572;6.578;2023-05-07T12:55:05;28.30;41.60
31677;DHT22;18385;51.572;6.578;2023-05-07T12:57:38;28.30;41.60
31677;DHT22;18385;51.572;6.578;2023-05-07T13:00:05;28.40;41.00
31677;DHT22;18385;51.572;6.578;2023-05-07T13:02:38;28.30;41.20
31677;DHT22;18385;51.572;6.578;2023-05-07T13:05:04;28.30;41.10
31677;DHT22;18385;51.572;6.578;2023-05-07T13:07:30;28.20;41.30
31677;DHT22;18385;51.572;6.578;2023-05-07T13:09:56;28.10;41.70
31677;DHT22;18385;51.572;6.578;2023-05-07T13:12:21;28.20;41.60
31677;DHT22;18385;51.572;6.578;2023-05-07T13:14:47;28.20;41.50
31677;DHT22;18385;51.572;6.578;2023-05-07T13:17:12;28.20;41.50
31677;DHT22;18385;51.572;6.578;2023-05-07T13:19:38;28.10;41.10
31677;DHT22;18385;51.572;6.578;2023-05-07T13:22:04;28.00;41.20
31677;DHT22;18385;51.572;6.578;2023-05-07T13:24:30;27.90;41.40
31677;DHT22;18385;51.572;6.578;2023-05-07T13:26:55;27.90;41.30
31677;DHT22;18385;51.572;6.578;2023-05-07T13:29:21;27.90;41.80
31677;DHT22;18385;51.572;6.578;2023-05-07T13:31:54;27.80;41.80
31677;DHT22;18385;51.572;6.578;2023-05-07T13:34:20;27.70;42.00
31677;DHT22;18385;51.572;6.578;2023-05-07T13:36:46;27.70;42.00
31677;DHT22;18385;51.572;6.578;2023-05-07T13:39:11;27.60;42.20
31677;DHT22;18385;51.572;6.578;2023-05-07T13:41:37;27.40;42.10
31677;DHT22;18385;51.572;6.578;2023-05-07T13:44:02;27.10;42.20
31677;DHT22;18385;51.572;6.578;2023-05-07T13:46:28;27.10;42.60
31677;DHT22;18385;51.572;6.578;2023-05-07T13:48:55;27.10;42.80
31677;DHT22;18385;51.572;6.578;2023-05-07T13:51:21;27.00;42.80
31677;DHT22;18385;51.572;6.578;2023-05-07T13:53:47;27.00;43.10
31677;DHT22;18385;51.572;6.578;2023-05-07T13:56:14;27.00;43.10
31677;DHT22;18385;51.572;6.578;2023-05-07T13:58:40;26.90;43.10
31677;DHT22;18385;51.572;6.578;2023-05-07T14:01:05;26.80;43.20
31677;DHT22;18385;51.572;6.578;2023-05-07T14:03:31;26.70;43.50
31677;DHT22;18385;51.572;6.578;2023-05-07T14:05:59;26.70;43.50
31677;DHT22;18385;51.572;6.578;2023-05-07T14:08:25;26.70;43.60
31677;DHT22;18385;51.572;6.578;2023-05-07T14:10:51;26.80;43.60
31677;DHT22;18385;51.572;6.578;2023-05-07T14:13:17;26.90;43.60
31677;DHT22;18385;51.572;6.578;2023-05-07T14:15:43;26.90;43.70
31677;DHT22;18385;51.572;6.578;2023-05-07T14:18:14;26.90;43.70
31677;DHT22;18385;51.572;6.578;2023-05-07T14:20:40;27.00;43.80
31677;DHT22;18385;51.572;6.578;2023-05-07T14:23:05;27.00;43.80
31677;DHT22;18385;51.572;6.578;2023-05-07T14:25:32;26.90;43.90
31677;DHT22;18385;51.572;6.578;2023-05-07T14:27:57;27.00;44.00
31677;DHT22;18385;51.572;6.578;2023-05-07T14:30:23;27.00;43.90
31677;DHT22;18385;51.572;6.578;2023-05-07T14:32:50;26.90;43.70
31677;DHT22;18385;51.572;6.578;2023-05-07T14:35:16;26.80;44.00
31677;DHT22;18385;51.572;6.578;2023-05-07T14:37:42;26.90;44.20
31677;DHT22;18385;51.572;6.578;2023-05-07T14:40:08;26.90;44.20
31677;DHT22;18385;51.572;6.578;2023-05-07T14:42:34;27.10;44.30
31677;DHT22;18385;51.572;6.578;2023-05-07T14:44:59;27.30;44.20
31677;DHT22;18385;51.572;6.578;2023-05-07T14:47:25;27.50;44.30
31677;DHT22;18385;51.572;6.578;2023-05-07T14:49:51;27.60;44.00
31677;DHT22;18385;51.572;6.578;2023-05-07T14:52:16;27.70;43.70
31677;DHT22;18385;51.572;6.578;2023-05-07T14:54:42;27.70;43.80
31677;DHT22;18385;51.572;6.578;2023-05-07T14:57:09;27.60;43.60
31677;DHT22;18385;51.572;6.578;2023-05-07T14:59:35;27.40;43.60
31677;DHT22;18385;51.572;6.578;2023-05-07T15:02:03;27.20;44.00
31677;DHT22;18385;51.572;6.578;2023-05-07T15:04:30;27.10;44.20
31677;DHT22;18385;51.572;6.578;2023-05-07T15:06:56;27.00;44.20
31677;DHT22;18385;51.572;6.578;2023-05-07T15:09:21;26.80;44.40
31677;DHT22;18385;51.572;6.578;2023-05-07T15:11:47;26.60;44.70
31677;DHT22;18385;51.572;6.578;2023-05-07T15:14:13;26.40;45.00
31677;DHT22;18385;51.572;6.578;2023-05-07T15:16:38;26.20;45.50
31677;DHT22;18385;51.572;6.578;2023-05-07T15:19:04;26.10;45.80
31677;DHT22;18385;51.572;6.578;2023-05-07T15:21:30;25.90;45.80
31677;DHT22;18385;51.572;6.578;2023-05-07T15:23:58;25.90;46.20
31677;DHT22;18385;51.572;6.578;2023-05-07T15:26:23;25.80;46.30
31677;DHT22;18385;51.572;6.578;2023-05-07T15:28:50;25.80;46.40
31677;DHT22;18385;51.572;6.578;2023-05-07T15:31:16;25.70;46.40
31677;DHT22;18385;51.572;6.578;2023-05-07T15:33:42;25.60;46.60
31677;DHT22;18385;51.572;6.578;2023-05-07T15:36:08;25.50;46.70
31677;DHT22;18385;51.572;6.578;2023-05-07T15:38:34;25.30;46.90
31677;DHT22;18385;51.572;6.578;2023-05-07T15:40:59;25.10;47.10
31677;DHT22;18385;51.572;6.578;2023-05-07T15:43:25;25.00;47.40
31677;DHT22;18385;51.572;6.578;2023-05-07T15:45:51;24.90;47.70
31677;DHT22;18385;51.572;6.578;2023-05-07T15:48:17;24.70;47.90